Lou del, Illinois
Current Conditions -  °F | °C
As of 6:53 AM on Sunday 23 Nov 2014 (Local Time) from KCPS Reporting Station
Scattered Clouds Scattered Clouds  
Wind Chill: 53°   Ceiling: Unl
Heat Index: 53°   Visibility: 10mi
Dew Point: 47°   Wind: 9mph
Humidity: 80%   Direction: 160°SSE
Pressure: 29.74"   Gusts: NA
Location:  38.3034°N, 90.1358°W
Report Text: KCPS 231253Z 16008KT 10SM FEW021 SCT110 12/08 A2974 RMK AO2 SLP071 T01170083
Loading
Personal Weather Stations






























Interactive Weather Map New forecast layout! Learn more

10-Day Weather Forecast

Advertisements
Track Severe Weather on mobile